Time;durP1;ratioP1;P1;durP2;ratioP2;P2;SDS_P1;SDS_P2;PMS_P1;PMS_P2;Temp;Humidity;BMP_temperature;BMP_pressure;BME280_temperature;BME280_humidity;BME280_pressure;Samples;Min_cycle;Max_cycle;Signal;HPM_P1;HPM_P2
2022/06/21 00:02:23;;;;;;;6.97;4.97;;;;;;;17.80;59.12;100557.50;5029520;28;20686;-64
2022/06/21 00:04:53;;;;;;;8.83;5.83;;;;;;;17.78;59.30;100553.34;5029915;28;20605;-62
2022/06/21 00:07:26;;;;;;;7.73;5.23;;;;;;;17.78;59.02;100556.00;5037788;28;20213;-62
2022/06/21 00:09:54;;;;;;;11.07;5.17;;;;;;;17.77;58.80;100557.03;5023387;28;20205;-62
2022/06/21 00:12:23;;;;;;;9.73;5.77;;;;;;;17.71;58.82;100563.19;5025879;28;20237;-63
2022/06/21 00:14:52;;;;;;;8.90;5.10;;;;;;;17.66;58.97;100555.72;5030447;28;20267;-62
2022/06/21 00:17:22;;;;;;;10.10;5.63;;;;;;;17.55;59.41;100561.56;5029249;28;20251;-63
2022/06/21 00:19:51;;;;;;;6.93;4.90;;;;;;;17.47;59.71;100569.72;5012899;28;20625;-63
2022/06/21 00:22:20;;;;;;;9.93;5.40;;;;;;;17.51;59.72;100558.41;5028875;28;20315;-63
2022/06/21 00:24:51;;;;;;;7.17;5.30;;;;;;;17.30;60.18;100559.25;5029677;28;20255;-63
2022/06/21 00:27:22;;;;;;;11.07;5.60;;;;;;;17.07;61.25;100560.38;5031509;28;20236;-62
2022/06/21 00:29:49;;;;;;;8.20;4.90;;;;;;;16.89;61.44;100556.25;5029464;28;20268;-62
2022/06/21 00:32:20;;;;;;;10.30;5.90;;;;;;;16.76;62.16;100564.16;5023139;28;20288;-62
2022/06/21 00:34:50;;;;;;;11.43;5.80;;;;;;;16.71;62.39;100558.50;5028841;28;20216;-62
2022/06/21 00:37:23;;;;;;;7.60;5.17;;;;;;;16.78;62.39;100561.28;5024484;28;20267;-61
2022/06/21 00:39:52;;;;;;;6.80;5.57;;;;;;;16.92;61.34;100563.09;5022237;28;20212;-61
2022/06/21 00:42:28;;;;;;;7.80;5.40;;;;;;;17.02;60.67;100563.66;5029703;28;20658;-61
2022/06/21 00:45:04;;;;;;;10.60;6.57;;;;;;;17.05;60.90;100571.31;5030024;28;20212;-63
2022/06/21 00:47:35;;;;;;;8.27;5.50;;;;;;;17.07;61.23;100571.94;5029882;28;20212;-63
2022/06/21 00:50:17;;;;;;;9.00;6.20;;;;;;;17.05;60.94;100581.19;5030148;28;20273;-62
2022/06/21 00:52:53;;;;;;;6.50;5.33;;;;;;;16.92;61.42;100588.03;5027783;28;20232;-62
2022/06/21 00:55:33;;;;;;;9.30;5.83;;;;;;;16.91;61.68;100574.84;5019360;28;20267;-63
2022/06/21 00:58:01;;;;;;;8.20;5.80;;;;;;;16.95;61.19;100584.16;5033321;28;20200;-62
2022/06/21 01:00:33;;;;;;;8.93;6.03;;;;;;;16.99;60.43;100574.72;5033363;28;20236;-62
2022/06/21 01:03:10;;;;;;;8.43;6.27;;;;;;;16.99;60.22;100577.41;5032471;28;20685;-62
2022/06/21 01:05:42;;;;;;;9.40;6.87;;;;;;;17.00;60.23;100573.72;5032716;28;20209;-63
2022/06/21 01:08:14;;;;;;;8.57;6.13;;;;;;;16.97;60.24;100573.28;5033334;28;20299;-63
2022/06/21 01:10:43;;;;;;;11.13;6.60;;;;;;;16.97;60.28;100573.28;5033258;28;20243;-62
2022/06/21 01:13:14;;;;;;;8.73;6.10;;;;;;;16.91;60.33;100573.00;5032504;28;20292;-62
2022/06/21 01:15:46;;;;;;;9.47;5.70;;;;;;;16.85;60.26;100563.03;5031515;28;20890;-63
2022/06/21 01:18:24;;;;;;;11.37;6.63;;;;;;;16.82;60.66;100560.72;5032948;28;20215;-62
2022/06/21 01:20:59;;;;;;;8.53;6.10;;;;;;;16.81;60.44;100553.69;5015962;28;20285;-62
2022/06/21 01:23:39;;;;;;;8.67;6.00;;;;;;;16.82;60.47;100558.03;5020757;28;20639;-61
2022/06/21 01:26:30;;;;;;;10.40;6.23;;;;;;;16.81;60.64;100556.38;5032452;28;20307;-63
2022/06/21 01:29:02;;;;;;;7.70;6.10;;;;;;;16.83;61.04;100557.03;5032785;28;20205;-62
2022/06/21 01:31:33;;;;;;;9.70;6.00;;;;;;;16.81;60.61;100569.75;5030567;28;20315;-63
2022/06/21 01:34:01;;;;;;;11.10;5.60;;;;;;;16.76;60.80;100564.16;5027332;28;20211;-63
2022/06/21 01:36:33;;;;;;;10.30;5.63;;;;;;;16.75;60.72;100567.84;5032621;28;20566;-63
2022/06/21 01:39:06;;;;;;;7.67;5.67;;;;;;;16.75;60.98;100567.84;5032109;28;20209;-61
2022/06/21 01:41:43;;;;;;;11.20;6.33;;;;;;;16.77;60.78;100560.44;5019262;28;20287;-62
2022/06/21 01:44:15;;;;;;;10.40;6.33;;;;;;;16.74;60.76;100555.47;5020522;28;20233;-61
2022/06/21 01:46:44;;;;;;;9.03;5.80;;;;;;;16.70;61.21;100548.84;5021274;28;20206;-62
2022/06/21 01:49:16;;;;;;;9.53;6.40;;;;;;;16.75;61.17;100557.13;5027371;28;20884;-63
2022/06/21 01:51:48;;;;;;;8.67;5.90;;;;;;;16.74;61.29;100555.47;5030587;28;20205;-62
2022/06/21 01:54:20;;;;;;;9.90;6.30;;;;;;;16.77;61.13;100560.44;5031212;28;20219;-61
2022/06/21 01:56:52;;;;;;;9.57;5.83;;;;;;;16.73;61.07;100558.31;5032252;28;20295;-62
2022/06/21 01:59:24;;;;;;;8.33;5.80;;;;;;;16.72;61.51;100557.47;5032600;28;20213;-63
2022/06/21 02:01:58;;;;;;;13.13;5.47;;;;;;;16.71;61.20;100555.81;5031235;28;20247;-61
2022/06/21 02:04:30;;;;;;;10.93;5.83;;;;;;;16.72;60.90;100557.47;5031717;28;20664;-62
2022/06/21 02:07:02;;;;;;;6.17;5.40;;;;;;;16.68;60.83;100558.06;5031600;28;20201;-61
2022/06/21 02:09:35;;;;;;;8.93;5.77;;;;;;;16.64;60.75;100560.25;5031453;28;20227;-62
2022/06/21 02:12:07;;;;;;;8.80;6.77;;;;;;;16.58;60.95;100550.28;5031297;28;20295;-62
2022/06/21 02:14:40;;;;;;;8.33;5.60;;;;;;;16.53;61.11;100537.44;5031280;28;20212;-61
2022/06/21 02:17:14;;;;;;;18.77;6.50;;;;;;;16.53;61.42;100539.31;5031804;28;20204;-62
2022/06/21 02:19:44;;;;;;;8.73;6.10;;;;;;;16.48;61.27;100533.66;5031841;28;20262;-62
2022/06/21 02:22:15;;;;;;;13.10;6.10;;;;;;;16.45;61.27;100528.66;5030803;28;20229;-61
2022/06/21 02:24:43;;;;;;;10.40;6.20;;;;;;;16.43;61.16;100523.50;5031578;28;20303;-60
2022/06/21 02:27:17;;;;;;;9.97;5.60;;;;;;;16.44;60.99;100516.31;5031488;28;20247;-62
2022/06/21 02:29:50;;;;;;;9.40;6.00;;;;;;;16.43;60.96;100520.84;5036811;28;20251;-62
2022/06/21 02:32:24;;;;;;;8.83;5.83;;;;;;;16.41;60.73;100514.00;5035023;28;20203;-61
2022/06/21 02:35:14;;;;;;;8.53;5.97;;;;;;;16.37;60.80;100504.66;5021755;28;20287;-62
2022/06/21 02:37:43;;;;;;;9.67;5.27;;;;;;;16.36;61.14;100519.88;5031575;28;20212;-63
2022/06/21 02:40:18;;;;;;;6.50;5.27;;;;;;;16.33;61.28;100519.44;5031357;28;20271;-63
2022/06/21 02:43:26;;;;;;;9.03;5.93;;;;;;;16.30;61.01;100512.59;5030629;28;20317;-62
2022/06/21 02:46:01;;;;;;;12.73;6.77;;;;;;;16.33;60.94;100514.09;5030787;28;20327;-62
2022/06/21 02:48:34;;;;;;;7.90;5.73;;;;;;;16.28;61.35;100511.13;5031456;28;20201;-62
2022/06/21 02:51:06;;;;;;;8.93;5.83;;;;;;;16.28;61.44;100514.63;5031034;28;20696;-63
2022/06/21 02:53:38;;;;;;;8.83;5.77;;;;;;;16.31;61.59;100516.13;5030004;28;20208;-62
2022/06/21 02:56:12;;;;;;;8.80;5.93;;;;;;;16.32;61.21;100517.78;5030265;28;20275;-61
2022/06/21 02:58:43;;;;;;;8.50;6.20;;;;;;;16.30;61.69;100525.16;5030982;28;20656;-62
2022/06/21 03:01:18;;;;;;;8.93;6.03;;;;;;;16.30;61.49;100535.84;5029567;28;20212;-63
2022/06/21 03:03:47;;;;;;;9.63;5.80;;;;;;;16.21;61.58;100534.28;5028583;28;20228;-63
2022/06/21 03:06:18;;;;;;;10.50;6.63;;;;;;;16.17;62.17;100532.00;5031305;28;20244;-62
2022/06/21 03:08:53;;;;;;;8.67;6.43;;;;;;;16.20;62.41;100520.06;5029372;28;20220;-61
2022/06/21 03:11:23;;;;;;;10.83;6.77;;;;;;;16.18;62.48;100512.22;5030711;28;20632;-62
2022/06/21 03:13:52;;;;;;;11.83;7.90;;;;;;;16.26;62.31;100505.16;5030145;28;20296;-64
2022/06/21 03:16:22;;;;;;;11.47;7.27;;;;;;;16.22;62.67;100502.00;5030817;28;20212;-65
2022/06/21 03:18:52;;;;;;;11.57;7.27;;;;;;;16.23;62.64;100492.13;5030292;28;20629;-62
2022/06/21 03:21:26;;;;;;;12.13;7.23;;;;;;;16.27;62.52;100488.09;5016704;28;20245;-63
2022/06/21 03:23:55;;;;;;;13.60;7.67;;;;;;;16.26;62.69;100489.09;5029626;28;20236;-61
2022/06/21 03:26:27;;;;;;;15.33;8.23;;;;;;;16.33;62.74;100479.31;5030364;28;20244;-62
2022/06/21 03:28:55;;;;;;;12.77;7.67;;;;;;;16.33;62.91;100487.34;5030578;28;20295;-62
2022/06/21 03:31:28;;;;;;;12.80;9.17;;;;;;;16.37;62.61;100478.72;5030792;28;20870;-63
2022/06/21 03:34:04;;;;;;;11.93;8.67;;;;;;;16.37;62.95;100477.91;5029351;28;20216;-62
2022/06/21 03:36:33;;;;;;;13.40;9.07;;;;;;;16.37;62.62;100475.22;5030516;28;20204;-63
2022/06/21 03:39:04;;;;;;;14.20;9.00;;;;;;;16.38;62.57;100471.53;5033809;28;20251;-62
2022/06/21 03:41:43;;;;;;;13.80;9.60;;;;;;;16.33;62.71;100468.59;5030790;28;20255;-61
2022/06/21 03:44:21;;;;;;;12.77;8.60;;;;;;;16.32;62.65;100466.94;5025773;28;20930;-62
2022/06/21 03:46:55;;;;;;;14.27;8.80;;;;;;;16.30;62.61;100464.44;5030503;28;20793;-64
2022/06/21 03:49:30;;;;;;;11.37;8.60;;;;;;;16.33;62.23;100456.06;5023557;28;20205;-63
2022/06/21 03:52:03;;;;;;;12.90;8.77;;;;;;;16.33;62.17;100456.06;5030122;28;20208;-62
2022/06/21 03:54:36;;;;;;;12.37;9.50;;;;;;;16.33;62.32;100456.06;5029320;28;20322;-63
2022/06/21 03:57:11;;;;;;;16.50;9.03;;;;;;;16.31;61.99;100451.91;5040813;28;20239;-61
2022/06/21 03:59:44;;;;;;;12.73;9.70;;;;;;;16.29;62.09;100453.91;5032526;28;20291;-62
2022/06/21 04:02:19;;;;;;;15.57;9.90;;;;;;;16.30;62.03;100450.22;5029687;28;20201;-61
2022/06/21 04:04:54;;;;;;;11.83;8.20;;;;;;;16.30;62.20;100445.72;5028623;28;20224;-61
2022/06/21 04:07:28;;;;;;;14.67;10.33;;;;;;;16.29;62.45;100451.25;5030561;28;20236;-61
2022/06/21 04:10:03;;;;;;;14.50;10.30;;;;;;;16.28;62.49;100441.56;5030717;28;20713;-62
2022/06/21 04:12:38;;;;;;;17.10;10.07;;;;;;;16.31;62.48;100443.88;5029760;28;20206;-62
2022/06/21 04:15:14;;;;;;;12.67;10.33;;;;;;;16.33;62.75;100449.88;5035106;28;20199;-62
2022/06/21 04:17:48;;;;;;;17.07;9.87;;;;;;;16.33;63.04;100452.53;5038187;28;20716;-62
2022/06/21 04:20:22;;;;;;;11.53;9.33;;;;;;;16.33;63.32;100453.38;5029754;28;20261;-63
2022/06/21 04:22:57;;;;;;;13.80;9.47;;;;;;;16.36;63.77;100452.19;5029569;28;20777;-63
2022/06/21 04:25:32;;;;;;;16.47;10.37;;;;;;;16.40;63.69;100453.47;5030149;28;20216;-63
2022/06/21 04:28:05;;;;;;;12.77;9.93;;;;;;;16.42;64.36;100460.28;5034475;28;20238;-63
2022/06/21 04:30:38;;;;;;;15.10;9.87;;;;;;;16.45;64.70;100462.56;5026015;28;20327;-63
2022/06/21 04:33:14;;;;;;;14.87;9.87;;;;;;;16.51;64.72;100458.34;5033344;28;20209;-63
2022/06/21 04:35:49;;;;;;;14.77;9.73;;;;;;;16.53;64.86;100453.66;5034174;28;20212;-63
2022/06/21 04:38:24;;;;;;;17.60;10.73;;;;;;;16.56;64.75;100455.94;5033603;28;20200;-63
2022/06/21 04:40:58;;;;;;;14.43;9.83;;;;;;;16.58;64.71;100451.22;5033556;28;20295;-63
2022/06/21 04:43:31;;;;;;;13.00;10.40;;;;;;;16.57;64.78;100457.59;5023044;28;20225;-63
2022/06/21 04:46:05;;;;;;;14.13;9.63;;;;;;;16.59;64.48;100463.59;5030223;28;20260;-63
2022/06/21 04:48:45;;;;;;;13.90;9.43;;;;;;;16.61;64.59;100458.91;5033043;28;20240;-63
2022/06/21 04:51:23;;;;;;;16.17;9.90;;;;;;;16.65;64.51;100457.50;5031623;28;20216;-63
2022/06/21 04:53:55;;;;;;;14.70;9.87;;;;;;;16.67;64.75;100451.97;5024360;28;20212;-62
2022/06/21 04:56:37;;;;;;;13.07;9.70;;;;;;;16.71;64.67;100453.28;5029281;28;20259;-61
2022/06/21 04:59:13;;;;;;;15.07;10.50;;;;;;;16.77;64.41;100442.63;5033314;28;20205;-62
2022/06/21 05:01:41;;;;;;;16.20;10.90;;;;;;;16.84;64.57;100448.88;5033415;28;20574;-62
2022/06/21 05:04:16;;;;;;;13.97;10.50;;;;;;;16.86;64.82;100457.56;5025654;28;20228;-62
2022/06/21 05:06:46;;;;;;;15.53;10.63;;;;;;;16.87;64.73;100461.91;5030160;28;20215;-62
2022/06/21 05:09:20;;;;;;;16.87;11.27;;;;;;;16.87;65.21;100461.06;5033095;28;20210;-63
2022/06/21 05:11:54;;;;;;;14.43;12.00;;;;;;;16.90;65.34;100464.19;5033069;28;20208;-63
2022/06/21 05:14:26;;;;;;;16.60;11.17;;;;;;;16.93;65.93;100469.19;5032707;28;20291;-61
2022/06/21 05:16:54;;;;;;;15.73;11.83;;;;;;;16.98;65.94;100465.91;5032551;28;20671;-62
2022/06/21 05:19:28;;;;;;;16.50;12.93;;;;;;;17.05;65.89;100468.69;5032820;28;20650;-62
2022/06/21 05:22:00;;;;;;;13.40;11.00;;;;;;;17.05;66.25;100466.00;5031892;28;20208;-62
2022/06/21 05:24:28;;;;;;;18.67;11.10;;;;;;;17.06;66.67;100476.53;5032326;28;20221;-62
2022/06/21 05:27:07;;;;;;;15.10;11.30;;;;;;;17.11;66.34;100473.28;5032904;28;20304;-63
2022/06/21 05:29:56;;;;;;;24.30;11.53;;;;;;;17.22;66.04;100462.06;5032728;28;20307;-62
2022/06/21 05:32:37;;;;;;;15.67;10.70;;;;;;;17.26;66.04;100452.59;5032521;28;20315;-61
2022/06/21 05:36:04;;;;;;;16.60;10.50;;;;;;;17.30;65.79;100457.41;5029821;28;20292;-62
2022/06/21 05:38:35;;;;;;;16.13;10.80;;;;;;;17.36;65.86;100447.75;5027981;28;20634;-62
2022/06/21 05:41:10;;;;;;;17.37;10.60;;;;;;;17.47;65.36;100438.38;5032423;28;20650;-62
2022/06/21 05:43:42;;;;;;;12.67;10.17;;;;;;;17.57;64.81;100450.41;5031798;28;20627;-62
2022/06/21 05:47:05;;;;;;;14.53;10.87;;;;;;;17.60;65.19;100458.06;5031818;28;20212;-62
2022/06/21 05:49:36;;;;;;;21.40;11.17;;;;;;;17.63;65.17;100460.41;5030414;28;20251;-62
2022/06/21 05:52:10;;;;;;;15.37;10.30;;;;;;;17.65;65.15;100447.63;5031549;28;20308;-62
2022/06/21 05:54:46;;;;;;;13.60;10.07;;;;;;;17.73;64.75;100449.34;5031206;28;20268;-62
2022/06/21 05:57:21;;;;;;;18.00;10.67;;;;;;;17.80;64.94;100454.75;5026875;28;20327;-63
2022/06/21 05:59:49;;;;;;;13.37;9.43;;;;;;;17.88;64.52;100452.72;5031433;28;20333;-62
2022/06/21 06:02:31;;;;;;;16.37;10.13;;;;;;;17.95;64.54;100455.44;5030705;28;20209;-62
2022/06/21 06:05:07;;;;;;;15.93;10.80;;;;;;;18.05;64.48;100458.63;5031556;28;20347;-62
2022/06/21 06:07:41;;;;;;;15.20;10.50;;;;;;;18.12;64.34;100456.81;5031742;28;20236;-62
2022/06/21 06:10:12;;;;;;;11.70;8.80;;;;;;;18.23;63.47;100455.44;5031866;28;20208;-61
2022/06/21 06:12:44;;;;;;;10.97;8.77;;;;;;;18.34;62.94;100457.56;5030940;28;20688;-62
2022/06/21 06:15:18;;;;;;;16.77;9.80;;;;;;;18.44;62.88;100466.09;5030708;28;20704;-62
2022/06/21 06:17:51;;;;;;;13.87;9.60;;;;;;;18.56;62.58;100463.66;5031546;28;20213;-62
2022/06/21 06:20:34;;;;;;;12.20;9.77;;;;;;;18.64;62.35;100460.84;5033480;28;20288;-62
2022/06/21 06:25:59;;;;;;;15.00;10.60;;;;;;;18.71;61.96;100459.81;5031214;28;20232;-61
2022/06/21 06:28:32;;;;;;;20.27;10.63;;;;;;;18.77;62.10;100466.25;5031335;28;20214;-63
2022/06/21 06:31:06;;;;;;;14.73;9.80;;;;;;;18.86;61.71;100467.72;5031402;28;20263;-63
2022/06/21 06:33:38;;;;;;;13.97;10.23;;;;;;;18.89;62.31;100467.31;5031232;28;20216;-67
2022/06/21 06:36:14;;;;;;;21.77;10.13;;;;;;;19.00;61.75;100480.16;5031437;28;20356;-62
2022/06/21 06:38:42;;;;;;;13.63;9.90;;;;;;;19.05;61.66;100485.75;5031301;28;20201;-62
2022/06/21 06:41:16;;;;;;;17.60;10.70;;;;;;;19.09;61.43;100495.06;5030912;28;20207;-63
2022/06/21 06:44:01;;;;;;;17.83;9.97;;;;;;;19.11;61.63;100495.69;5030580;28;20232;-62
2022/06/21 06:46:32;;;;;;;13.20;9.93;;;;;;;19.20;61.30;100487.44;5022979;28;20219;-61
2022/06/21 06:49:17;;;;;;;14.77;9.47;;;;;;;19.31;60.80;100484.16;5030319;28;20203;-62
2022/06/21 06:51:56;;;;;;;14.53;9.37;;;;;;;19.43;60.70;100480.66;5030140;28;20300;-63
2022/06/21 06:54:32;;;;;;;16.27;9.33;;;;;;;19.57;60.13;100489.59;5029288;28;20244;-61
2022/06/21 06:57:10;;;;;;;13.13;9.17;;;;;;;19.69;59.98;100493.34;5030393;28;20204;-62
2022/06/21 06:59:39;;;;;;;15.13;9.07;;;;;;;19.77;59.36;100508.44;5030381;28;20214;-62
2022/06/21 07:02:17;;;;;;;13.43;8.67;;;;;;;19.78;59.55;100515.47;5030506;28;20300;-62
2022/06/21 07:04:50;;;;;;;13.17;8.23;;;;;;;19.84;59.44;100514.66;5030124;28;20271;-64
2022/06/21 07:07:29;;;;;;;11.87;7.77;;;;;;;19.90;59.73;100525.41;5030504;28;20617;-62
2022/06/21 07:10:03;;;;;;;10.13;7.97;;;;;;;19.92;59.05;100527.88;5029835;28;20213;-63
2022/06/21 07:12:33;;;;;;;11.73;7.50;;;;;;;19.98;59.16;100531.59;5029534;28;20227;-62
2022/06/21 07:15:01;;;;;;;13.47;7.90;;;;;;;20.03;58.75;100537.22;5030196;28;20211;-61
2022/06/21 07:17:34;;;;;;;10.07;6.67;;;;;;;20.15;58.38;100530.13;5030300;28;20222;-63
2022/06/21 07:20:16;;;;;;;10.17;7.30;;;;;;;20.21;58.24;100524.75;5030047;28;20291;-63
2022/06/21 07:22:45;;;;;;;12.47;7.27;;;;;;;20.27;57.29;100520.41;5029929;28;20205;-62
2022/06/21 07:25:24;;;;;;;13.60;7.03;;;;;;;20.32;57.57;100504.41;5030196;28;20681;-62
2022/06/21 07:27:58;;;;;;;10.47;5.80;;;;;;;20.38;56.30;100495.56;5030485;28;20200;-63
2022/06/21 07:30:32;;;;;;;8.73;5.10;;;;;;;20.42;56.40;100499.47;5030394;28;20383;-61
2022/06/21 07:33:05;;;;;;;12.13;5.70;;;;;;;20.47;56.03;100499.66;5029799;28;20240;-62
2022/06/21 07:35:37;;;;;;;9.47;6.23;;;;;;;20.56;55.63;100476.03;5021127;28;20291;-61
2022/06/21 07:38:10;;;;;;;10.87;5.20;;;;;;;20.62;55.04;100440.97;5029535;28;20210;-62
2022/06/21 07:40:42;;;;;;;12.00;4.77;;;;;;;20.68;54.22;100406.94;5029416;28;20216;-62
2022/06/21 07:43:17;;;;;;;10.40;4.67;;;;;;;20.74;53.44;100349.50;5031997;28;20774;-62
2022/06/21 07:45:52;;;;;;;8.17;3.43;;;;;;;20.86;53.45;100314.59;5029596;28;20232;-62
2022/06/21 07:48:25;;;;;;;9.50;4.53;;;;;;;20.93;53.48;100289.22;5029267;28;20303;-65
2022/06/21 07:50:57;;;;;;;10.00;4.80;;;;;;;21.00;53.28;100275.72;5029481;28;20208;-63
2022/06/21 07:53:30;;;;;;;9.50;4.73;;;;;;;20.98;52.95;100269.72;5029029;28;20685;-62
2022/06/21 07:56:01;;;;;;;8.70;4.13;;;;;;;21.00;53.25;100278.41;5029575;28;20633;-62
2022/06/21 07:58:35;;;;;;;9.00;4.20;;;;;;;20.95;53.22;100335.66;5030194;28;20800;-62
2022/06/21 08:06:53;;;;;;;8.23;3.53;;;;;;;20.60;53.28;100348.75;5022149;28;20705;-63
2022/06/21 08:09:27;;;;;;;10.67;3.67;;;;;;;20.56;52.63;100339.47;5034466;28;20211;-62
2022/06/21 08:12:00;;;;;;;6.03;3.43;;;;;;;20.51;52.86;100347.34;5034012;28;20273;-62
2022/06/21 08:14:31;;;;;;;6.07;3.10;;;;;;;20.56;52.64;100352.94;5033375;28;20216;-62
2022/06/21 08:17:07;;;;;;;8.07;3.57;;;;;;;20.59;53.12;100352.47;5036849;28;20304;-63
2022/06/21 08:19:40;;;;;;;10.37;3.87;;;;;;;20.60;52.75;100351.44;5033583;28;20299;-63
2022/06/21 08:22:13;;;;;;;10.83;3.77;;;;;;;20.63;52.94;100348.34;5020337;28;20263;-62
2022/06/21 08:24:52;;;;;;;6.40;3.20;;;;;;;20.68;52.45;100344.97;5033675;28;20201;-62
2022/06/21 08:27:30;;;;;;;8.90;3.27;;;;;;;20.74;51.71;100346.81;5033852;28;20299;-63
2022/06/21 08:30:07;;;;;;;8.67;3.40;;;;;;;20.82;51.79;100340.34;5033323;28;20248;-62
2022/06/21 08:32:44;;;;;;;9.07;2.80;;;;;;;21.05;50.95;100345.97;5032638;28;20213;-62
2022/06/21 08:35:18;;;;;;;7.67;3.60;;;;;;;21.30;50.14;100349.50;5033258;28;20694;-62
2022/06/21 08:37:53;;;;;;;7.43;2.93;;;;;;;21.52;48.71;100341.03;5032634;28;20213;-61
2022/06/21 08:40:43;;;;;;;7.20;2.63;;;;;;;21.68;48.81;100341.28;5033302;28;20298;-62
2022/06/21 08:43:54;;;;;;;6.20;2.53;;;;;;;21.85;47.61;100325.31;5019399;28;20288;-63
2022/06/21 08:46:52;;;;;;;7.13;2.40;;;;;;;21.99;45.74;100321.41;5032504;28;20224;-63
2022/06/21 08:49:52;;;;;;;6.03;2.00;;;;;;;22.03;46.12;100327.19;5029190;28;20227;-62
2022/06/21 08:52:35;;;;;;;7.77;2.57;;;;;;;22.26;44.70;100329.19;5027552;28;20319;-62
2022/06/21 08:55:21;;;;;;;5.77;2.63;;;;;;;22.38;44.15;100335.47;5031892;28;20232;-62
2022/06/21 08:58:13;;;;;;;4.57;1.60;;;;;;;22.40;44.30;100333.38;5032592;28;20208;-62
2022/06/21 09:00:48;;;;;;;4.67;2.00;;;;;;;22.44;44.73;100339.97;5032763;28;20204;-63
2022/06/21 09:03:43;;;;;;;5.83;2.03;;;;;;;22.57;44.46;100345.19;5031135;28;20292;-63
2022/06/21 09:06:16;;;;;;;6.63;2.20;;;;;;;22.73;43.69;100349.94;5032419;28;20225;-62
2022/06/21 09:09:04;;;;;;;4.87;1.77;;;;;;;22.81;43.39;100352.34;5032863;28;20233;-62
2022/06/21 09:11:42;;;;;;;4.80;2.00;;;;;;;22.94;43.60;100351.34;5031840;28;20205;-63
2022/06/21 09:14:36;;;;;;;5.93;2.10;;;;;;;23.03;43.08;100341.00;5032179;28;20299;-62
2022/06/21 09:17:14;;;;;;;7.95;2.10;;;;;;;23.12;43.73;100347.72;5024628;28;20288;-62
2022/06/21 09:20:03;;;;;;;2.92;1.63;;;;;;;23.18;42.26;100336.78;5027638;28;20222;-64
2022/06/21 09:22:40;;;;;;;6.25;2.42;;;;;;;23.15;42.02;100347.25;5032292;28;20323;-62
2022/06/21 09:25:16;;;;;;;12.55;2.10;;;;;;;23.26;41.32;100339.16;5032356;28;20291;-63
2022/06/21 09:27:48;;;;;;;6.72;1.75;;;;;;;23.32;42.65;100345.50;5028706;28;20338;-62
2022/06/21 09:30:23;;;;;;;5.20;1.88;;;;;;;23.38;42.10;100343.75;5031734;28;20311;-62
2022/06/21 09:32:59;;;;;;;6.30;2.05;;;;;;;23.42;41.13;100348.44;5031443;28;20307;-62
2022/06/21 09:35:41;;;;;;;3.25;1.77;;;;;;;23.46;41.66;100338.81;5032373;28;20224;-62
2022/06/21 09:38:19;;;;;;;5.18;1.92;;;;;;;23.55;42.03;100342.84;5031914;28;20211;-63
2022/06/21 09:40:58;;;;;;;5.60;2.13;;;;;;;23.71;41.12;100346.72;5031895;28;20220;-63
2022/06/21 09:43:41;;;;;;;4.55;2.10;;;;;;;23.78;40.94;100333.03;5030718;28;20295;-62
2022/06/21 09:46:22;;;;;;;7.85;2.03;;;;;;;23.92;40.72;100320.91;5035951;28;20308;-61
2022/06/21 09:49:00;;;;;;;6.70;2.13;;;;;;;24.01;41.19;100325.69;5031509;28;20926;-63
2022/06/21 09:51:40;;;;;;;8.68;1.92;;;;;;;24.13;40.73;100309.41;5012966;28;20212;-62
2022/06/21 09:54:27;;;;;;;9.65;1.88;;;;;;;24.29;40.23;100316.78;5031475;28;20298;-63
2022/06/21 09:57:04;;;;;;;9.10;2.00;;;;;;;24.29;41.18;100310.53;5027697;28;20201;-62
2022/06/21 09:59:38;;;;;;;5.80;2.10;;;;;;;24.30;40.21;100318.44;5031299;28;20212;-63
2022/06/21 10:02:17;;;;;;;6.15;1.85;;;;;;;24.30;39.71;100312.19;5021859;28;20239;-63
2022/06/21 10:05:04;;;;;;;10.27;2.17;;;;;;;24.22;40.32;100307.16;5031942;28;20645;-63
2022/06/21 10:07:47;;;;;;;4.53;2.10;;;;;;;23.98;39.95;100314.53;5031842;28;20260;-63
2022/06/21 10:10:29;;;;;;;9.23;2.20;;;;;;;23.93;40.17;100317.09;5028098;28;20665;-63
2022/06/21 10:13:05;;;;;;;4.22;1.60;;;;;;;23.89;39.70;100310.53;5035768;28;20291;-63
2022/06/21 10:15:55;;;;;;;18.75;2.42;;;;;;;24.00;40.65;100315.09;5031833;28;20813;-63
2022/06/21 10:18:49;;;;;;;9.32;1.90;;;;;;;24.11;40.53;100311.53;5031575;28;20201;-63
2022/06/21 10:21:27;;;;;;;4.20;2.00;;;;;;;24.28;39.43;100320.56;5031391;28;20219;-62
2022/06/21 10:24:23;;;;;;;5.53;1.70;;;;;;;24.43;38.92;100305.69;5031148;28;20215;-64
2022/06/21 10:27:13;;;;;;;17.02;2.05;;;;;;;24.41;39.16;100294.25;5031254;28;20233;-63
2022/06/21 10:29:55;;;;;;;3.08;1.60;;;;;;;24.45;38.93;100293.50;5017824;28;20246;-62
2022/06/21 10:32:45;;;;;;;6.00;1.70;;;;;;;24.51;39.09;100289.00;5030213;28;20702;-62
2022/06/21 10:35:33;;;;;;;7.32;1.90;;;;;;;24.56;38.82;100289.09;5028561;28;20569;-62
2022/06/21 10:38:26;;;;;;;9.07;2.05;;;;;;;24.82;38.46;100299.31;5032282;28;20228;-62
2022/06/21 10:41:19;;;;;;;7.25;2.00;;;;;;;25.04;38.54;100288.59;5030797;28;20209;-62
2022/06/21 10:44:01;;;;;;;6.65;1.73;;;;;;;25.23;37.68;100297.31;5029974;28;20654;-62
2022/06/21 10:46:34;;;;;;;5.65;1.60;;;;;;;25.42;37.79;100276.94;5018775;28;20753;-61
2022/06/21 10:49:33;;;;;;;4.03;1.30;;;;;;;25.49;37.17;100281.13;5030661;28;20622;-62
2022/06/21 10:52:23;;;;;;;4.68;1.15;;;;;;;25.71;35.68;100264.88;5030436;28;20758;-62
2022/06/21 10:55:23;;;;;;;2.92;1.38;;;;;;;25.78;36.17;100270.13;5021848;28;20243;-62
2022/06/21 10:58:02;;;;;;;3.42;1.42;;;;;;;25.93;35.73;100272.22;5008308;28;20601;-62
2022/06/21 11:03:51;;;;;;;4.72;1.60;;;;;;;26.11;35.57;100263.72;4985053;28;20212;-62
2022/06/21 11:06:30;;;;;;;7.93;1.80;;;;;;;26.19;34.75;100263.28;5007839;28;20554;-62
2022/06/21 11:09:04;;;;;;;7.10;1.67;;;;;;;26.32;33.92;100257.44;5010543;28;20252;-62
2022/06/21 11:11:43;;;;;;;2.83;1.20;;;;;;;26.35;34.00;100246.06;5010845;28;20212;-63
2022/06/21 11:14:21;;;;;;;6.50;1.17;;;;;;;26.40;34.22;100237.13;5009967;28;20231;-62
2022/06/21 11:17:01;;;;;;;5.93;1.40;;;;;;;26.45;34.27;100224.44;5010410;28;20304;-62
2022/06/21 11:19:37;;;;;;;5.55;1.50;;;;;;;26.58;35.08;100212.28;5010485;28;20264;-62
2022/06/21 11:22:25;;;;;;;4.32;1.52;;;;;;;26.65;34.26;100212.09;4997029;28;20296;-63
2022/06/21 11:25:03;;;;;;;3.25;1.35;;;;;;;26.77;33.62;100204.56;5008780;28;20247;-63
2022/06/21 11:27:47;;;;;;;2.72;1.17;;;;;;;26.83;33.76;100201.59;5007270;28;20262;-62
2022/06/21 11:30:23;;;;;;;4.93;1.70;;;;;;;26.94;34.41;100199.81;5012795;28;20232;-64
2022/06/21 11:32:59;;;;;;;5.65;1.75;;;;;;;26.95;34.49;100196.00;4988899;28;20209;-62
2022/06/21 11:35:36;;;;;;;9.05;2.65;;;;;;;26.93;33.94;100206.31;5010510;28;20291;-62
2022/06/21 11:38:32;;;;;;;5.57;1.58;;;;;;;26.99;32.96;100205.28;5010287;28;20201;-62
2022/06/21 11:41:05;;;;;;;6.97;1.60;;;;;;;27.10;32.56;100206.97;5011416;28;20571;-63
2022/06/21 11:43:49;;;;;;;5.85;1.40;;;;;;;27.18;33.44;100211.09;5010226;28;20205;-63
2022/06/21 11:46:29;;;;;;;4.07;1.35;;;;;;;27.40;32.57;100197.34;5010703;28;20292;-63
2022/06/21 11:49:29;;;;;;;7.18;1.50;;;;;;;27.41;33.59;100197.09;5003057;28;20331;-62
2022/06/21 11:52:40;;;;;;;2.90;1.40;;;;;;;27.44;32.14;100191.13;5017173;28;20221;-63
2022/06/21 11:55:21;;;;;;;5.25;1.55;;;;;;;27.45;32.28;100197.34;4991142;28;20327;-64
2022/06/21 11:58:01;;;;;;;3.17;1.20;;;;;;;27.42;32.40;100187.84;5029921;28;20897;-63
2022/06/21 12:00:36;;;;;;;5.38;1.42;;;;;;;27.30;32.42;100187.22;5030107;28;20678;-63
2022/06/21 12:03:05;;;;;;;4.68;1.60;;;;;;;27.23;32.71;100179.31;5029762;28;20228;-62
2022/06/21 12:05:43;;;;;;;2.13;1.25;;;;;;;27.27;33.00;100174.13;5028429;28;20209;-62
2022/06/21 12:08:19;;;;;;;9.07;1.45;;;;;;;27.30;32.42;100163.53;5029773;28;20299;-63
2022/06/21 12:10:50;;;;;;;5.15;1.67;;;;;;;27.26;32.81;100162.44;5029875;28;20222;-63
2022/06/21 12:13:35;;;;;;;5.10;1.23;;;;;;;27.28;32.88;100154.81;5029214;28;20232;-62
2022/06/21 12:16:21;;;;;;;2.45;1.40;;;;;;;27.21;32.78;100142.53;5030121;28;20215;-64